createdAt,value
2019-06-10T12:37:10.157Z,101089.06
2019-06-10T12:38:05.941Z,101093.17
2019-06-10T12:39:09.790Z,101097.4
2019-06-10T12:40:05.479Z,101104.3
2019-06-10T12:41:07.782Z,101111.59
2019-06-10T12:42:06.053Z,101109.59
2019-06-10T12:43:05.044Z,101108.49
2019-06-10T12:44:00.293Z,101110.9
2019-06-10T12:45:05.858Z,101112.71
2019-06-10T12:46:03.181Z,101112.32
2019-06-10T12:47:06.232Z,101112.01
2019-06-10T12:48:06.232Z,101111.55
2019-06-10T12:49:06.219Z,101107.43
2019-06-10T12:50:04.126Z,101107.53
2019-06-10T12:51:06.238Z,101108.35
2019-06-10T12:52:01.275Z,101103.96
2019-06-10T12:53:05.413Z,101102.01
2019-06-10T12:54:03.016Z,101102.73
2019-06-10T12:55:03.988Z,101101.34
2019-06-10T12:56:07.863Z,101104
2019-06-10T12:57:05.210Z,101116.56
2019-06-10T13:00:59.835Z,101127.75
2019-06-10T13:02:15.035Z,101126.01
2019-06-10T13:03:05.002Z,101125.71
2019-06-10T13:03:59.819Z,101115.6
2019-06-10T13:23:06.840Z,101079.53
2019-06-10T13:25:00.602Z,101078.4
2019-06-10T13:26:02.961Z,101081.21
2019-06-10T13:29:59.875Z,101071.37
2019-06-10T13:32:00.547Z,101068.25
2019-06-10T13:33:00.992Z,101069.07
2019-06-10T13:34:04.648Z,101069.86
2019-06-10T13:35:00.549Z,101068.61
2019-06-10T13:38:59.440Z,101052.71
2019-06-10T13:39:59.494Z,101050.32
2019-06-10T13:40:59.577Z,101047.97
2019-06-10T13:41:59.818Z,101040.21
2019-06-10T13:42:59.707Z,101039.93
2019-06-10T13:44:59.918Z,101041.07
2019-06-10T13:46:00.001Z,101035.25
2019-06-10T13:46:59.628Z,101041.9
2019-06-10T13:48:59.749Z,101037.66
2019-06-10T13:50:00.789Z,101033.36
2019-06-10T13:51:00.637Z,101040.5
2019-06-10T13:52:00.806Z,101034.68
2019-06-10T13:53:00.326Z,101039.9
2019-06-10T13:54:00.575Z,101040.18
2019-06-10T13:54:59.255Z,101041.5
2019-06-10T13:56:18.788Z,101040.07
2019-06-10T13:56:59.265Z,101042.86
2019-06-10T13:57:59.512Z,101034.6
2019-06-10T13:58:59.335Z,101039.46
2019-06-10T13:59:59.315Z,101040.36
2019-06-10T14:00:59.794Z,101039.37
2019-06-10T14:01:59.797Z,101030.34
2019-06-10T14:03:00.001Z,101034.78
2019-06-10T14:04:00.849Z,101028.17
2019-06-10T14:05:00.548Z,101024.29
2019-06-10T14:06:02.741Z,101013.4
2019-06-10T14:06:59.173Z,101017.21
2019-06-10T14:08:59.154Z,101014.29
2019-06-10T14:10:00.345Z,101021
2019-06-10T14:10:59.091Z,101015.71
2019-06-10T14:11:59.102Z,101015.4
2019-06-10T14:12:59.069Z,101007.78
2019-06-10T14:13:59.074Z,101006.54
2019-06-10T14:14:59.068Z,101009.59
2019-06-10T14:15:59.054Z,101007.01
2019-06-10T14:16:59.160Z,101002.56
2019-06-10T14:17:59.036Z,100998.87
2019-06-10T14:18:59.000Z,101002.63
2019-06-10T14:19:59.012Z,100996.03
2019-06-10T14:20:58.992Z,100990.81
2019-06-10T14:21:58.975Z,100990.28
2019-06-10T14:22:58.953Z,100982.06
2019-06-10T14:25:58.957Z,100984.18
2019-06-10T14:26:58.914Z,100974.62
2019-06-10T14:27:58.937Z,100980.6
2019-06-10T14:28:58.895Z,100978.03
2019-06-10T14:29:58.912Z,100980.15
2019-06-10T14:30:58.888Z,100974.39
2019-06-10T14:31:58.880Z,100979.07
2019-06-10T14:32:58.883Z,100971.82
2019-06-10T14:33:58.840Z,100971
2019-06-10T14:34:58.858Z,100966.97
2019-06-10T14:35:58.840Z,100964.51
2019-06-10T14:36:58.835Z,100958.04
2019-06-10T14:37:58.809Z,100955.95
2019-06-10T14:38:58.797Z,100961.03
2019-06-10T14:39:58.827Z,100949.09
2019-06-10T14:40:58.767Z,100948.12
2019-06-10T14:41:59.430Z,100948.54
2019-06-10T14:42:58.789Z,100950.25
2019-06-10T14:43:58.755Z,100948.76
2019-06-10T14:44:58.791Z,100944.15
2019-06-10T14:45:58.756Z,100940.18
2019-06-10T14:46:58.767Z,100947.05
2019-06-10T14:47:58.935Z,100938.2
2019-06-10T14:48:58.734Z,100938.62
2019-06-10T14:49:58.715Z,100932.4
2019-06-10T14:50:58.669Z,100931.13
2019-06-10T14:51:58.669Z,100923.32
2019-06-10T14:53:58.651Z,100924.35
2019-06-10T14:55:58.685Z,100925.26
2019-06-10T14:56:58.595Z,100916.95
2019-06-10T14:57:58.598Z,100925.92
2019-06-10T14:58:58.623Z,100927.14
2019-06-10T15:00:58.550Z,100923.43
2019-06-10T15:01:58.545Z,100921.4
2019-06-10T15:03:01.554Z,100926.06
2019-06-10T15:03:58.532Z,100920.76
2019-06-10T15:04:58.564Z,100923.75
2019-06-10T15:05:58.521Z,100920.28
2019-06-10T15:06:58.522Z,100920.55
2019-06-10T15:24:59.302Z,100945.81
2019-06-10T15:36:59.203Z,100929.36
2019-06-10T16:16:56.586Z,100942.64
2019-06-10T16:17:56.343Z,100944.99
2019-06-10T16:18:56.342Z,100947.22
2019-06-10T16:19:56.338Z,100942.88
2019-06-10T16:20:56.328Z,100944.21
2019-06-10T16:21:56.360Z,100943.18
2019-06-10T16:22:56.286Z,100941.89
2019-06-10T16:23:56.275Z,100941.45
2019-06-10T16:24:56.269Z,100947.73
2019-06-10T16:25:56.281Z,100947.62
2019-06-10T16:26:56.279Z,100942.32
2019-06-10T16:27:56.240Z,100941.29
2019-06-10T16:28:57.240Z,100940.67
2019-06-10T16:29:56.204Z,100938.18
2019-06-10T16:30:56.215Z,100940.37
2019-06-10T16:31:56.185Z,100941
2019-06-10T16:32:56.174Z,100930.37
2019-06-10T16:33:56.194Z,100929.42
2019-06-10T16:34:56.169Z,100932.1
2019-06-10T16:35:56.182Z,100938.23
2019-06-10T16:36:56.153Z,100932.95
2019-06-10T16:37:58.139Z,100937.03
2019-06-10T16:38:56.143Z,100950.17
2019-06-10T16:39:57.126Z,100947.07
2019-06-10T16:40:56.112Z,100946.26
2019-06-10T16:41:56.098Z,100947.49
2019-06-10T16:42:56.121Z,100944.73
2019-06-10T16:43:56.085Z,100935.4
2019-06-10T16:44:56.057Z,100935.52
2019-06-10T16:45:56.066Z,100941.67
2019-06-10T16:46:56.030Z,100931.84
2019-06-10T16:47:56.183Z,100937.95
2019-06-10T16:48:56.031Z,100937.9
2019-06-10T16:49:55.996Z,100933.92
2019-06-10T16:50:55.995Z,100932.03
2019-06-10T16:51:55.969Z,100936.53
2019-06-10T16:52:56.029Z,100935.42
2019-06-10T16:53:55.983Z,100926.4
2019-06-10T16:54:55.962Z,100931.52
2019-06-10T16:55:55.947Z,100929.34
2019-06-10T16:56:55.931Z,100932.03
2019-06-10T16:57:59.517Z,100925.24
2019-06-10T16:58:56.926Z,100926.51
2019-06-10T16:59:55.909Z,100926.15
2019-06-10T17:01:07.044Z,100930.14
2019-06-10T17:02:07.064Z,100926.66
2019-06-10T17:03:07.115Z,100927.37
2019-06-10T17:04:06.996Z,100932.5
2019-06-10T17:05:07.006Z,100929.39
2019-06-10T17:06:07.005Z,100929.96
2019-06-10T17:07:06.983Z,100938.12
2019-06-10T17:08:06.991Z,100927.82
2019-06-10T17:09:06.931Z,100930.31
2019-06-10T17:10:06.968Z,100936.22
2019-06-10T17:11:06.953Z,100929.96
2019-06-10T17:12:06.929Z,100936.62
2019-06-10T17:13:06.976Z,100932.77
2019-06-10T17:14:06.909Z,100934.9
2019-06-10T17:15:06.912Z,100926.6
2019-06-10T17:16:06.887Z,100933
2019-06-10T17:17:06.856Z,100929.62
2019-06-10T17:18:06.871Z,100930.59
2019-06-10T17:19:06.851Z,100925.31
2019-06-10T17:20:06.847Z,100934.9
2019-06-10T17:21:06.836Z,100935.78
2019-06-10T17:22:06.828Z,100938.82
2019-06-10T17:23:06.845Z,100938.42
2019-06-10T17:24:07.806Z,100937.73
2019-06-10T17:25:07.814Z,100941.43
2019-06-10T17:26:06.782Z,100936.68
2019-06-10T17:27:06.769Z,100940.91
2019-06-10T17:28:17.976Z,100936
2019-06-10T17:29:07.752Z,100931.5
2019-06-10T17:30:06.774Z,100930.89
2019-06-10T17:31:06.725Z,100936.75
2019-06-10T17:32:06.736Z,100940.13
2019-06-10T17:33:06.717Z,100936.84
2019-06-10T17:34:06.899Z,100937.09
2019-06-10T17:35:06.711Z,100943.4
2019-06-10T17:36:06.665Z,100941.21
2019-06-10T17:37:06.665Z,100951.82
2019-06-10T17:38:06.644Z,100957.68
2019-06-10T17:39:06.662Z,100956.14
2019-06-10T17:40:06.627Z,100949.82
2019-06-10T17:41:06.638Z,100954.22
2019-06-10T17:42:06.587Z,100956.45
2019-06-10T17:43:07.580Z,100959.28
2019-06-10T17:44:06.615Z,100957.49
2019-06-10T17:45:06.578Z,100955.23
2019-06-10T17:46:06.538Z,100956.09
2019-06-10T17:47:06.557Z,100957.4
2019-06-10T17:48:06.548Z,100956.95
2019-06-10T17:49:06.529Z,100957.64
2019-06-10T17:50:06.514Z,100965.07
2019-06-10T17:51:06.540Z,100962.64
2019-06-10T17:52:06.494Z,100962.43
2019-06-10T17:53:06.488Z,100975.53
2019-06-10T17:54:06.458Z,100966.06
2019-06-10T17:55:06.489Z,100968.41
2019-06-10T17:56:06.471Z,100968.75
2019-06-10T17:57:06.458Z,100966.5
2019-06-10T17:58:06.420Z,100962.26
2019-06-10T17:59:06.423Z,100963.04
2019-06-10T18:00:12.067Z,100956.88
2019-06-10T18:01:07.412Z,100956.71
2019-06-10T18:02:07.403Z,100961.37
2019-06-10T18:03:07.370Z,100955.14
2019-06-10T18:04:06.352Z,100959.1
2019-06-10T18:05:06.455Z,100964.3
2019-06-10T18:06:06.342Z,100968.09
2019-06-10T18:07:06.304Z,100968
2019-06-10T18:08:06.304Z,100968.53
2019-06-10T18:09:06.301Z,100969.04
2019-06-10T18:10:06.327Z,100972.28
2019-06-10T18:11:06.276Z,100977.57
2019-06-10T18:12:06.285Z,100976.08
2019-06-10T18:13:13.885Z,100975.14
2019-06-10T18:14:07.232Z,100980.9
2019-06-10T18:15:07.285Z,100986.6
2019-06-10T18:16:06.238Z,100982
2019-06-10T18:17:06.202Z,100978.38
2019-06-10T18:18:06.199Z,100984.93
2019-06-10T18:19:06.180Z,100983.9
2019-06-10T18:20:06.173Z,100980.81
2019-06-10T18:21:06.180Z,100981.5
2019-06-10T18:22:06.145Z,100983.75
2019-06-10T18:23:06.144Z,100983.99
2019-06-10T18:24:08.742Z,100989.4
2019-06-10T18:25:07.114Z,100982.84
2019-06-10T18:26:06.134Z,100990.78
2019-06-10T18:27:06.133Z,100993.54
2019-06-10T18:28:07.090Z,100996.82
2019-06-10T18:29:09.111Z,101000.09
2019-06-10T18:30:11.353Z,101002.51
2019-06-10T18:31:07.076Z,101004.74
2019-06-10T18:32:06.048Z,101003.42
2019-06-10T18:33:06.040Z,101006.81
2019-06-10T18:34:06.033Z,101011.19
2019-06-10T18:35:06.017Z,101012.85
2019-06-10T18:36:06.112Z,101012.85
2019-06-10T18:37:06.016Z,101007.36
2019-06-10T18:38:05.990Z,101010.64
2019-06-10T18:39:05.979Z,101008.67
2019-06-10T18:40:05.963Z,101008.46
2019-06-10T18:41:05.992Z,101000.87
2019-06-10T18:42:05.929Z,101002.34
2019-06-10T18:43:05.918Z,101002.42
2019-06-10T18:44:19.652Z,100999.92
2019-06-10T18:45:06.909Z,101003.03
2019-06-10T18:46:05.937Z,101004.82
2019-06-10T18:47:05.901Z,101004.82
2019-06-10T18:48:05.866Z,100997.84
2019-06-10T18:49:05.891Z,100995.15
2019-06-10T18:50:05.872Z,101000.26
2019-06-10T18:51:05.849Z,100997.03
2019-06-10T18:52:05.842Z,101000.9
2019-06-10T18:53:05.822Z,101002.39
2019-06-10T18:54:05.816Z,101004.81
2019-06-10T18:55:05.810Z,101003.48
2019-06-10T18:56:05.784Z,101005.9
2019-06-10T18:57:05.789Z,101005.73
2019-06-10T18:58:05.770Z,101004.69
2019-06-10T18:59:16.434Z,101006.92
2019-06-10T19:00:11.804Z,101002.95
2019-06-10T19:01:08.795Z,101006.68
2019-06-10T19:02:06.726Z,101003.91
2019-06-10T19:03:12.257Z,101007.37
2019-06-10T19:04:06.728Z,101006.39
2019-06-10T19:05:05.706Z,101004.07
2019-06-10T19:06:05.688Z,101008.81
2019-06-10T19:07:05.792Z,101009.43
2019-06-10T19:08:05.649Z,101005.07
2019-06-10T19:09:05.651Z,101009.67
2019-06-10T19:10:05.633Z,101011.91
2019-06-10T19:11:05.637Z,101013.35
2019-06-10T19:12:05.683Z,101016.64
2019-06-10T19:13:05.615Z,101022.85
2019-06-10T19:14:05.590Z,101015.17
2019-06-10T19:15:05.586Z,101017.39
2019-06-10T19:16:05.566Z,101022.07
2019-06-10T19:17:05.614Z,101024.66
2019-06-10T19:18:05.543Z,101027.14
2019-06-10T19:19:05.553Z,101030.87
2019-06-10T19:20:05.535Z,101030.93
2019-06-10T19:21:08.696Z,101026.79
2019-06-10T19:22:09.267Z,101027.54
2019-06-10T19:23:05.509Z,101031.79
2019-06-10T19:24:05.479Z,101030.14
2019-06-10T19:25:05.474Z,101025.32
2019-06-10T19:26:05.467Z,101024.28
2019-06-10T19:27:06.452Z,101022.9
2019-06-10T19:28:05.450Z,101016.99
2019-06-10T19:29:05.444Z,101029.59
2019-06-10T19:30:05.415Z,101028.03
2019-06-10T19:31:05.394Z,101026.82
2019-06-10T19:32:06.425Z,101030.78
2019-06-10T19:33:05.394Z,101035.63
2019-06-10T19:34:05.375Z,101029.14
2019-06-10T19:35:07.370Z,101030.6
2019-06-10T19:36:05.393Z,101030.6
2019-06-10T19:37:05.362Z,101028.25
2019-06-10T19:38:05.437Z,101024.45
2019-06-10T19:39:05.334Z,101022.21
2019-06-10T19:40:05.309Z,101022.39
2019-06-10T19:41:05.339Z,101018.92
2019-06-10T19:42:05.318Z,101022.46
2019-06-10T19:43:05.351Z,101022.14
2019-06-10T19:44:05.265Z,101024.09
2019-06-10T19:45:07.427Z,101035.76
2019-06-10T19:46:07.754Z,101029.26
2019-06-10T19:47:05.232Z,101033.81
2019-06-10T19:48:05.272Z,101029.6
2019-06-10T19:49:07.552Z,101024.76
2019-06-10T19:50:05.216Z,101023.05
2019-06-10T19:51:05.222Z,101022.75
2019-06-10T19:52:05.180Z,101022.52
2019-06-10T19:53:05.192Z,101025.46
2019-06-10T19:54:05.175Z,101022.58
2019-06-10T19:55:08.129Z,101024.59
2019-06-10T19:56:07.127Z,101023.54
2019-06-10T19:57:05.140Z,101024.23
2019-06-10T19:58:06.108Z,101029.14
2019-06-10T19:59:06.122Z,101027.85
2019-06-10T20:00:12.070Z,101024.75
2019-06-10T20:01:06.081Z,101019.98
2019-06-10T20:02:08.550Z,101024.81
2019-06-10T20:03:05.086Z,101019.87
2019-06-10T20:04:05.130Z,101017.62
2019-06-10T20:05:05.051Z,101022.1
2019-06-10T20:06:05.037Z,101021.42
2019-06-10T20:07:05.022Z,101022
2019-06-10T20:08:05.012Z,101015.73
2019-06-10T20:09:05.180Z,101016.95
2019-06-10T20:10:05.006Z,101020.04
2019-06-10T20:11:04.976Z,101024.59
2019-06-10T20:12:04.963Z,101021.09
2019-06-10T20:13:04.959Z,101024.03
2019-06-10T20:14:05.004Z,101023.06
2019-06-10T20:15:04.927Z,101027.31
2019-06-10T20:16:04.949Z,101025.01
2019-06-10T20:17:04.916Z,101021.04
2019-06-10T20:18:04.912Z,101022.6
2019-06-10T20:19:04.884Z,101024.43
2019-06-10T20:20:04.911Z,101027.48
2019-06-10T20:21:04.887Z,101028.12
2019-06-10T20:22:04.856Z,101021.73
2019-06-10T20:23:07.839Z,101022.51
2019-06-10T20:24:04.871Z,101027.9
2019-06-10T20:25:05.832Z,101022.15
2019-06-10T20:26:04.828Z,101029.39
2019-06-10T20:27:04.832Z,101027.04
2019-06-10T20:28:04.811Z,101025.49
2019-06-10T20:29:05.792Z,101025.92
2019-06-10T20:30:20.474Z,101028.7
2019-06-10T20:31:05.781Z,101029.81
2019-06-10T20:32:05.775Z,101033.02
2019-06-10T20:33:05.775Z,101025.42
2019-06-10T20:34:04.738Z,101029.28
2019-06-10T20:35:05.774Z,101026.18
2019-06-10T20:36:09.677Z,101032.21
2019-06-10T20:37:06.687Z,101029.75
2019-06-10T20:38:05.698Z,101034.59
2019-06-10T20:39:04.677Z,101035.32
2019-06-10T20:40:05.771Z,101027.29
2019-06-10T20:41:04.675Z,101031.37
2019-06-10T20:42:04.647Z,101029.01
2019-06-10T20:43:05.644Z,101024.7
2019-06-10T20:44:04.641Z,101031.5
2019-06-10T20:45:05.640Z,101030.75
2019-06-10T20:46:06.622Z,101028.74
2019-06-10T20:47:04.620Z,101030.51
2019-06-10T20:48:04.610Z,101030.68
2019-06-10T20:49:05.594Z,101026.5
2019-06-10T20:50:05.558Z,101030.06
2019-06-10T20:51:05.546Z,101026.25
2019-06-10T20:52:11.385Z,101025.89
2019-06-10T20:53:13.976Z,101024.34
2019-06-10T20:54:05.604Z,101024.69
2019-06-10T20:55:05.513Z,101024
2019-06-10T20:56:05.774Z,101016.81
2019-06-10T20:57:05.514Z,101027.45
2019-06-10T20:58:07.377Z,101025.71
2019-06-10T20:59:05.464Z,101019.21
2019-06-10T21:00:18.471Z,101022.43
2019-06-10T21:01:06.491Z,101024.91
2019-06-10T21:02:05.407Z,101015.85
2019-06-10T21:03:05.418Z,101024.37
2019-06-10T21:04:05.413Z,101015.75
2019-06-10T21:05:04.411Z,101020.24
2019-06-10T21:06:05.400Z,101014.2
2019-06-10T21:07:04.406Z,101013.23
2019-06-10T21:08:05.361Z,101016.1
2019-06-10T21:09:05.377Z,101012.7
2019-06-10T21:10:04.355Z,101016.15
2019-06-10T21:11:05.346Z,101014.6
2019-06-10T21:12:04.351Z,101010.9
2019-06-10T21:13:05.324Z,101018.04
2019-06-10T21:14:05.286Z,101017.7
2019-06-10T21:15:04.296Z,101013.57
2019-06-10T21:16:05.277Z,101011.75
2019-06-10T21:17:05.315Z,101012.1
2019-06-10T21:18:04.264Z,101013.21
2019-06-10T21:19:04.255Z,101008.71
2019-06-10T21:20:05.222Z,101011.48
2019-06-10T21:21:04.222Z,101007.68
2019-06-10T21:22:05.274Z,101013.3
2019-06-10T21:23:05.203Z,101011.14
2019-06-10T21:24:04.185Z,101012.81
2019-06-10T21:25:04.171Z,101015.21
2019-06-10T21:26:05.187Z,101006.92
2019-06-10T21:27:04.256Z,101003.71
2019-06-10T21:28:05.153Z,101011.23
2019-06-10T21:29:05.154Z,101005.71
2019-06-10T21:30:11.284Z,101005.26
2019-06-10T21:31:05.123Z,101004.34
2019-06-10T21:32:05.105Z,101007.43
2019-06-10T21:33:05.111Z,100998.37
2019-06-10T21:34:05.095Z,101000.18
2019-06-10T21:35:05.065Z,101006.4
2019-06-10T21:36:05.073Z,101003.64
2019-06-10T21:37:05.059Z,100998.14
2019-06-10T21:38:04.049Z,101005.96
2019-06-10T21:39:05.013Z,101002.51
2019-06-10T21:40:05.040Z,101003.14
2019-06-10T21:41:05.006Z,100996.91
2019-06-10T21:42:04.019Z,101002.09
2019-06-10T21:43:05.099Z,101002.78
2019-06-10T21:44:04.969Z,101005.21
2019-06-10T21:45:04.959Z,101006.93
2019-06-10T21:46:04.946Z,101005.56
2019-06-10T21:47:04.960Z,101006.65
2019-06-10T21:48:03.989Z,101004.41
2019-06-10T21:49:03.953Z,101003.14
2019-06-10T21:50:03.922Z,101000.96
2019-06-10T21:51:03.933Z,100993.89
2019-06-10T21:52:04.878Z,100995.42
2019-06-10T21:53:04.907Z,100995.53
2019-06-10T21:54:04.863Z,100995.18
2019-06-10T21:55:04.878Z,101000.71
2019-06-10T21:56:03.869Z,101009.35
2019-06-10T21:57:04.852Z,101002.32
2019-06-10T21:58:04.949Z,101010.9
2019-06-10T21:59:04.820Z,101005.71
2019-06-10T22:00:10.621Z,101013.48
2019-06-10T22:01:12.792Z,101013.03
2019-06-10T22:02:04.813Z,101011.99
2019-06-10T22:03:03.787Z,101014.06
2019-06-10T22:04:05.746Z,101012.78
2019-06-10T22:05:04.765Z,101007.39
2019-06-10T22:06:04.752Z,101009.53
2019-06-10T22:07:04.768Z,101011.53
2019-06-10T22:08:04.709Z,101011.12
2019-06-10T22:09:04.708Z,101018.71
2019-06-10T22:10:04.683Z,101013.2
2019-06-10T22:11:04.688Z,101015.39
2019-06-10T22:12:04.693Z,101009.82
2019-06-10T22:13:04.669Z,101009.14
2019-06-10T22:14:04.741Z,101003.84
2019-06-10T22:15:03.659Z,101007.99
2019-06-10T22:16:04.646Z,101011.71
2019-06-10T22:17:04.636Z,101006.03
2019-06-10T22:18:04.616Z,101013.6
2019-06-10T22:19:04.681Z,101007.45
2019-06-10T22:20:03.600Z,101012.46
2019-06-10T22:21:04.583Z,101009.87
2019-06-10T22:22:04.578Z,101008.85
2019-06-10T22:23:04.561Z,101004.82
2019-06-10T22:24:04.599Z,101004.54
2019-06-10T22:25:04.552Z,101002.46
2019-06-10T22:26:04.523Z,101000.67
2019-06-10T22:27:04.501Z,100999.99
2019-06-10T22:28:04.533Z,101001.43
2019-06-10T22:29:03.496Z,100996.48
2019-06-10T22:30:11.099Z,100998.67
2019-06-10T22:31:18.918Z,101002.12
2019-06-10T22:32:04.475Z,101006.6
2019-06-10T22:33:04.447Z,101005.34
2019-06-10T22:34:04.442Z,101010.46
2019-06-10T22:35:04.429Z,101001.43
2019-06-10T22:36:04.418Z,101002.43
2019-06-10T22:37:04.429Z,100995.01
2019-06-10T22:38:04.398Z,100998.64
2019-06-10T22:39:04.377Z,100998.03
2019-06-10T22:40:04.422Z,100998.29
2019-06-10T22:41:04.364Z,101003.18
2019-06-10T22:42:04.358Z,101005.96
2019-06-10T22:43:07.544Z,101003.3
2019-06-10T22:44:04.356Z,101009.34
2019-06-10T22:45:04.438Z,101009.95
2019-06-10T22:46:04.294Z,101007.85
2019-06-10T22:47:04.320Z,100999.04
2019-06-10T22:48:04.265Z,100998.64
2019-06-10T22:49:04.288Z,101000.43
2019-06-10T22:50:07.404Z,100996.98
2019-06-10T22:51:03.263Z,100999.33
2019-06-10T22:52:03.271Z,100993.81
2019-06-10T22:53:05.249Z,100993.5
2019-06-10T22:54:04.237Z,100982.83
2019-06-10T22:55:04.221Z,100981.68
2019-06-10T22:56:04.217Z,100986.28
2019-06-10T22:57:04.190Z,100984.32
2019-06-10T22:58:06.111Z,100988.01
2019-06-10T22:59:04.189Z,100990.25
2019-06-10T23:00:04.184Z,100990.59
2019-06-10T23:01:04.510Z,100987.5
2019-06-10T23:02:04.141Z,100987.21
2019-06-10T23:03:04.159Z,100987.66
2019-06-10T23:04:05.116Z,100990.07
2019-06-10T23:05:05.586Z,100989.45
2019-06-10T23:06:04.158Z,100983.58
2019-06-10T23:07:04.081Z,100975.36
2019-06-10T23:08:04.071Z,100976
2019-06-10T23:09:04.107Z,100976.17
2019-06-10T23:10:04.068Z,100975.81
2019-06-10T23:11:04.106Z,100974.89
2019-06-10T23:12:04.033Z,100974.27
2019-06-10T23:13:04.022Z,100979.96
2019-06-10T23:14:04.027Z,100981.4
2019-06-10T23:15:03.994Z,100980.93
2019-06-10T23:16:04.002Z,100977.25
2019-06-10T23:17:04.008Z,100972.09
2019-06-10T23:18:03.967Z,100974.55
2019-06-10T23:19:03.941Z,100970.18
2019-06-10T23:20:03.972Z,100964.5
2019-06-10T23:21:04.945Z,100965.61
2019-06-10T23:22:03.913Z,100964.76
2019-06-10T23:23:03.898Z,100971.24
2019-06-10T23:24:03.909Z,100965.72
2019-06-10T23:25:03.898Z,100967.85
2019-06-10T23:26:03.873Z,100968.03
2019-06-10T23:27:03.936Z,100961.63
2019-06-10T23:28:02.888Z,100967.85
2019-06-10T23:29:03.879Z,100961.64
2019-06-10T23:30:11.393Z,100963.43
2019-06-10T23:31:05.880Z,100963.48
2019-06-10T23:32:06.942Z,100966.11
2019-06-10T23:33:02.818Z,100959.46
2019-06-10T23:34:03.780Z,100966.19
2019-06-10T23:35:02.790Z,100957.72
2019-06-10T23:36:04.757Z,100965.22
2019-06-10T23:37:03.804Z,100957.72
2019-06-10T23:38:05.233Z,100961.07
2019-06-10T23:39:04.718Z,100965.14
2019-06-10T23:40:04.786Z,100968.59
2019-06-10T23:41:04.720Z,100962.02
2019-06-10T23:42:04.147Z,100961.5
2019-06-10T23:43:04.685Z,100966.11
2019-06-10T23:44:04.677Z,100967.45
2019-06-10T23:45:05.147Z,100963.42
2019-06-10T23:46:04.657Z,100958.59
2019-06-10T23:47:04.636Z,100962.14
2019-06-10T23:48:05.131Z,100958.59
2019-06-10T23:49:04.828Z,100958.25
2019-06-10T23:50:04.613Z,100957.57
2019-06-10T23:51:05.113Z,100954
2019-06-10T23:52:05.417Z,100962.34
2019-06-10T23:53:07.663Z,100953.93
2019-06-10T23:54:06.146Z,100952.65
2019-06-10T23:55:04.710Z,100951.18
2019-06-10T23:56:05.128Z,100949.89
2019-06-10T23:57:05.874Z,100949.45
2019-06-10T23:58:03.546Z,100942.31
2019-06-10T23:59:04.795Z,100946.34
